ěÝzenÝ letovÚho provozu ╚eskÚ republiky
Letiste: LKPJ Aktualizace: 16.04.2024 06:00:59  UTC
 METAR LKPJ 16.04. 06:00 ...
METAR LKPJ 160600Z AUTO 28010KT 9999 // FEW099/// OVC130/// 07/M01 Q1005=